Time;durP1;ratioP1;P1;durP2;ratioP2;P2;SDS_P1;SDS_P2;PMS_P1;PMS_P2;Temp;Humidity;BMP_temperature;BMP_pressure;BME280_temperature;BME280_humidity;BME280_pressure;Samples;Min_cycle;Max_cycle;Signal;HPM_P1;HPM_P2
2022/01/05 00:01:25;;;;;;;;;;;1.60;99.90;;;;;;4966720;28;20392;-82
2022/01/05 00:03:52;;;;;;;;;;;1.60;99.90;;;;;;4965581;28;20040;-82
2022/01/05 00:06:19;;;;;;;;;;;1.50;99.90;;;;;;4966539;28;19945;-82
2022/01/05 00:08:46;;;;;;;;;;;1.40;99.90;;;;;;4964608;28;19930;-82
2022/01/05 00:11:13;;;;;;;;;;;1.30;99.90;;;;;;4965103;28;20414;-82
2022/01/05 00:13:40;;;;;;;;;;;1.30;99.90;;;;;;4981679;28;19922;-82
2022/01/05 00:16:07;;;;;;;;;;;1.20;99.90;;;;;;4961894;28;19953;-82
2022/01/05 00:18:34;;;;;;;;;;;1.10;99.90;;;;;;4964479;28;19922;-82
2022/01/05 00:21:03;;;;;;;;;;;1.10;99.90;;;;;;4967802;28;19976;-82
2022/01/05 00:23:30;;;;;;;;;;;1.10;99.90;;;;;;4957884;28;19928;-82
2022/01/05 00:25:57;;;;;;;;;;;1.00;99.90;;;;;;4964030;28;20081;-82
2022/01/05 00:28:23;;;;;;;;;;;1.00;99.90;;;;;;4968402;28;19973;-82
2022/01/05 00:30:50;;;;;;;;;;;1.10;99.90;;;;;;4966374;28;19929;-82
2022/01/05 00:33:17;;;;;;;;;;;1.10;99.90;;;;;;4976614;28;19922;-82
2022/01/05 00:35:44;;;;;;;;;;;1.10;99.90;;;;;;4981363;28;19937;-82
2022/01/05 00:38:11;;;;;;;;;;;1.20;99.90;;;;;;4984122;28;19921;-82
2022/01/05 00:40:38;;;;;;;;;;;1.20;99.90;;;;;;4963268;28;19977;-82
2022/01/05 00:43:05;;;;;;;;;;;1.30;99.90;;;;;;4978745;28;19926;-82
2022/01/05 00:45:32;;;;;;;;;;;1.30;99.90;;;;;;4966713;28;19969;-82
2022/01/05 00:47:59;;;;;;;;;;;1.40;99.90;;;;;;4982147;28;20716;-82
2022/01/05 00:50:25;;;;;;;;;;;1.40;99.90;;;;;;4964400;28;19922;-82
2022/01/05 00:52:53;;;;;;;;;;;1.40;99.90;;;;;;4963775;28;20221;-82
2022/01/05 00:55:19;;;;;;;;;;;1.50;99.90;;;;;;4976552;28;19922;-82
2022/01/05 00:57:47;;;;;;;;;;;1.50;99.90;;;;;;4962566;28;19972;-82
2022/01/05 01:00:14;;;;;;;;;;;1.50;99.90;;;;;;4967118;28;19925;-82
2022/01/05 01:02:40;;;;;;;;;;;1.50;99.90;;;;;;4961231;28;19922;-82
2022/01/05 01:05:08;;;;;;;;;;;1.50;99.90;;;;;;4966761;28;20017;-82
2022/01/05 01:07:35;;;;;;;;;;;1.60;99.90;;;;;;4966421;28;19922;-82
2022/01/05 01:10:02;;;;;;;;;;;1.60;99.90;;;;;;4965897;28;20403;-82
2022/01/05 01:12:29;;;;;;;;;;;1.60;99.90;;;;;;4963245;28;19930;-82
2022/01/05 01:14:56;;;;;;;;;;;1.60;99.90;;;;;;4964007;28;19938;-82
2022/01/05 01:17:22;;;;;;;;;;;1.70;99.90;;;;;;4965110;28;19941;-82
2022/01/05 01:19:49;;;;;;;;;;;1.70;99.90;;;;;;4964402;28;19930;-82
2022/01/05 01:22:16;;;;;;;;;;;1.70;99.90;;;;;;4962544;28;19923;-82
2022/01/05 01:24:43;;;;;;;;;;;1.70;99.90;;;;;;4961935;28;19922;-82
2022/01/05 01:27:10;;;;;;;;;;;1.70;99.90;;;;;;4966831;28;20013;-82
2022/01/05 01:29:43;;;;;;;;;;;1.60;99.90;;;;;;3734869;28;10019994;-82
2022/01/05 01:32:10;;;;;;;;;;;1.60;99.90;;;;;;1697960;29;10002054;-82
2022/01/05 01:34:37;;;;;;;;;;;1.60;99.90;;;;;;4944233;28;19954;-82
2022/01/05 01:37:04;;;;;;;;;;;1.60;99.90;;;;;;4951985;28;19957;-82
2022/01/05 01:39:31;;;;;;;;;;;1.60;99.90;;;;;;4949972;28;19953;-82
2022/01/05 01:41:59;;;;;;;;;;;1.50;99.90;;;;;;4953013;28;19927;-82
2022/01/05 01:44:25;;;;;;;;;;;1.50;99.90;;;;;;4947998;28;19981;-82
2022/01/05 01:46:53;;;;;;;;;;;1.50;99.90;;;;;;4947774;28;19958;-82
2022/01/05 01:49:20;;;;;;;;;;;1.50;99.90;;;;;;4947631;28;20016;-83
2022/01/05 01:51:47;;;;;;;;;;;1.50;99.90;;;;;;4947280;28;20443;-82
2022/01/05 01:54:14;;;;;;;;;;;1.50;99.90;;;;;;4948367;28;19934;-82
2022/01/05 01:56:42;;;;;;;;;;;1.50;99.90;;;;;;4945785;28;19926;-82
2022/01/05 01:59:09;;;;;;;;;;;1.50;99.90;;;;;;4959580;28;20007;-81
2022/01/05 02:01:36;;;;;;;;;;;1.50;99.90;;;;;;4945866;28;20772;-81
2022/01/05 02:04:03;;;;;;;;;;;1.50;99.90;;;;;;4948782;28;20355;-81
2022/01/05 02:06:31;;;;;;;;;;;1.60;99.90;;;;;;4947401;28;19981;-82
2022/01/05 02:08:59;;;;;;;;;;;1.60;99.90;;;;;;4947699;28;19923;-81
2022/01/05 02:11:26;;;;;;;;;;;1.60;99.90;;;;;;4953336;28;19929;-82
2022/01/05 02:13:53;;;;;;;;;;;1.60;99.90;;;;;;4947718;28;19926;-81
2022/01/05 02:16:22;;;;;;;;;;;1.70;99.90;;;;;;4949596;28;19926;-82
2022/01/05 02:18:58;;;;;;;;;;;1.70;99.90;;;;;;4948205;28;20008;-82
2022/01/05 02:21:29;;;;;;;;;;;1.70;99.90;;;;;;4964156;28;19931;-81
2022/01/05 02:23:56;;;;;;;;;;;1.70;99.90;;;;;;4948566;28;20234;-81
2022/01/05 02:26:23;;;;;;;;;;;1.70;99.90;;;;;;4950399;28;19980;-81
2022/01/05 02:28:50;;;;;;;;;;;1.70;99.90;;;;;;4984005;28;20020;-81
2022/01/05 02:31:16;;;;;;;;;;;1.80;99.90;;;;;;4980630;28;20383;-81
2022/01/05 02:33:44;;;;;;;;;;;1.80;99.90;;;;;;4968477;28;19973;-81
2022/01/05 02:36:14;;;;;;;;;;;1.80;99.90;;;;;;4985045;28;19930;-81
2022/01/05 02:38:41;;;;;;;;;;;1.80;99.90;;;;;;4967846;28;19959;-81
2022/01/05 02:41:09;;;;;;;;;;;1.90;99.90;;;;;;4970247;28;21075;-81
2022/01/05 02:43:36;;;;;;;;;;;1.90;99.90;;;;;;4980582;28;20402;-81
2022/01/05 02:46:04;;;;;;;;;;;1.90;99.90;;;;;;4984446;28;19930;-81
2022/01/05 02:48:32;;;;;;;;;;;1.90;99.90;;;;;;4964317;28;20331;-81
2022/01/05 02:50:59;;;;;;;;;;;1.90;99.90;;;;;;4981738;28;20460;-82
2022/01/05 02:53:26;;;;;;;;;;;1.90;99.90;;;;;;4969896;28;20387;-81
2022/01/05 02:55:53;;;;;;;;;;;1.90;99.90;;;;;;4970383;28;19945;-81
2022/01/05 02:58:20;;;;;;;;;;;1.90;99.90;;;;;;4957332;28;19965;-81
2022/01/05 03:00:47;;;;;;;;;;;1.90;99.90;;;;;;4965070;28;19990;-81
2022/01/05 03:03:14;;;;;;;;;;;1.90;99.90;;;;;;4966788;28;20327;-81
2022/01/05 03:05:41;;;;;;;;;;;1.90;99.90;;;;;;4969523;28;19929;-82
2022/01/05 03:08:08;;;;;;;;;;;1.90;99.90;;;;;;4964295;28;20373;-81
2022/01/05 03:10:35;;;;;;;;;;;1.90;99.90;;;;;;4968733;28;19922;-81
2022/01/05 03:13:02;;;;;;;;;;;1.80;99.90;;;;;;4965249;28;20599;-81
2022/01/05 03:15:29;;;;;;;;;;;1.80;99.90;;;;;;4969392;28;19926;-81
2022/01/05 03:17:56;;;;;;;;;;;1.70;99.90;;;;;;4981381;28;19971;-81
2022/01/05 03:20:23;;;;;;;;;;;1.80;99.90;;;;;;4968037;28;19926;-81
2022/01/05 03:22:50;;;;;;;;;;;1.70;99.90;;;;;;4967076;28;19929;-81
2022/01/05 03:25:18;;;;;;;;;;;1.70;99.90;;;;;;4969740;28;19921;-82
2022/01/05 03:27:49;;;;;;;;;;;1.70;99.90;;;;;;4979553;28;20264;-83
2022/01/05 03:30:30;;;;;;;;;;;1.70;99.90;;;;;;2095734;28;10021903;-83
2022/01/05 03:35:29;;;;;;;;;;;1.70;99.90;;;;;;4964527;28;20379;-83
2022/01/05 03:37:56;;;;;;;;;;;1.70;99.90;;;;;;4977984;28;19930;-83
2022/01/05 03:40:23;;;;;;;;;;;1.70;99.90;;;;;;4964891;28;19993;-83
2022/01/05 03:42:50;;;;;;;;;;;1.70;99.90;;;;;;4965954;28;19922;-83
2022/01/05 03:45:17;;;;;;;;;;;1.80;99.90;;;;;;4963304;28;20026;-83
2022/01/05 03:47:44;;;;;;;;;;;1.80;99.90;;;;;;4968002;28;20001;-83
2022/01/05 03:50:11;;;;;;;;;;;1.80;99.90;;;;;;4966816;28;19949;-83
2022/01/05 03:52:37;;;;;;;;;;;1.90;99.90;;;;;;4964124;28;19922;-83
2022/01/05 03:55:05;;;;;;;;;;;1.90;99.90;;;;;;4960039;28;19926;-83
2022/01/05 03:57:32;;;;;;;;;;;1.90;99.90;;;;;;4962381;28;19929;-83
2022/01/05 04:00:00;;;;;;;;;;;2.00;99.90;;;;;;4981434;28;20013;-83
2022/01/05 04:02:26;;;;;;;;;;;2.00;99.90;;;;;;4966055;28;19922;-83
2022/01/05 04:04:53;;;;;;;;;;;2.00;99.90;;;;;;4965744;28;19926;-83
2022/01/05 04:07:20;;;;;;;;;;;2.00;99.90;;;;;;4967318;28;19961;-83
2022/01/05 04:09:47;;;;;;;;;;;2.10;99.90;;;;;;4982295;28;19926;-83
2022/01/05 04:12:14;;;;;;;;;;;2.10;99.90;;;;;;4966648;28;19988;-83
2022/01/05 04:14:42;;;;;;;;;;;2.10;99.90;;;;;;4965882;28;20022;-83
2022/01/05 04:17:09;;;;;;;;;;;2.10;99.90;;;;;;4959629;28;20035;-83
2022/01/05 04:19:36;;;;;;;;;;;2.00;99.90;;;;;;4968720;28;19965;-83
2022/01/05 04:22:04;;;;;;;;;;;2.00;99.90;;;;;;4980657;28;19965;-83
2022/01/05 04:24:30;;;;;;;;;;;2.00;99.90;;;;;;4964835;28;19922;-83
2022/01/05 04:26:57;;;;;;;;;;;1.90;99.90;;;;;;4980935;28;19928;-83
2022/01/05 04:29:24;;;;;;;;;;;1.90;99.90;;;;;;4962329;28;19926;-83
2022/01/05 04:31:51;;;;;;;;;;;1.90;99.90;;;;;;4977726;28;19977;-83
2022/01/05 04:34:19;;;;;;;;;;;1.90;99.90;;;;;;4965145;28;19925;-83
2022/01/05 04:37:06;;;;;;;;;;;2.00;99.90;;;;;;4965000;28;19929;-83
2022/01/05 04:39:34;;;;;;;;;;;2.00;99.90;;;;;;4962145;28;19922;-83
2022/01/05 04:42:01;;;;;;;;;;;2.00;99.90;;;;;;4963263;28;19944;-83
2022/01/05 04:44:28;;;;;;;;;;;2.00;99.90;;;;;;4963095;28;19923;-83
2022/01/05 04:46:55;;;;;;;;;;;2.00;99.90;;;;;;4967435;28;19941;-83
2022/01/05 04:49:22;;;;;;;;;;;2.00;99.90;;;;;;4963411;28;19933;-83
2022/01/05 04:51:49;;;;;;;;;;;2.10;99.90;;;;;;4964106;28;20498;-83
2022/01/05 04:54:16;;;;;;;;;;;2.10;99.90;;;;;;4978679;28;19921;-83
2022/01/05 04:56:43;;;;;;;;;;;2.10;99.90;;;;;;4959116;28;19941;-83
2022/01/05 04:59:10;;;;;;;;;;;2.10;99.90;;;;;;4968844;28;19977;-83
2022/01/05 05:01:37;;;;;;;;;;;2.10;99.90;;;;;;4964257;28;19981;-83
2022/01/05 05:04:04;;;;;;;;;;;2.10;99.90;;;;;;4966086;28;20259;-83
2022/01/05 05:06:31;;;;;;;;;;;2.20;99.90;;;;;;4964082;28;19922;-83
2022/01/05 05:08:58;;;;;;;;;;;2.20;99.90;;;;;;4962767;28;20406;-83
2022/01/05 05:11:25;;;;;;;;;;;2.20;99.90;;;;;;4961888;28;19922;-83
2022/01/05 05:13:52;;;;;;;;;;;2.20;99.90;;;;;;4962299;28;19961;-83
2022/01/05 05:16:19;;;;;;;;;;;2.20;99.90;;;;;;4954511;28;19969;-84
2022/01/05 05:18:45;;;;;;;;;;;2.20;99.90;;;;;;4963846;28;19953;-83
2022/01/05 05:21:12;;;;;;;;;;;2.20;99.90;;;;;;4966236;28;19966;-83
2022/01/05 05:23:39;;;;;;;;;;;2.10;99.90;;;;;;4966823;28;20430;-83
2022/01/05 05:26:06;;;;;;;;;;;2.10;99.90;;;;;;4964915;28;19933;-83
2022/01/05 05:28:33;;;;;;;;;;;2.10;99.90;;;;;;4948036;28;20230;-83
2022/01/05 05:31:12;;;;;;;;;;;2.10;99.90;;;;;;706953;28;10002171;-83
2022/01/05 05:33:39;;;;;;;;;;;2.10;99.90;;;;;;4946009;28;19929;-83
2022/01/05 05:36:06;;;;;;;;;;;2.10;99.90;;;;;;4945016;28;19926;-83
2022/01/05 05:38:33;;;;;;;;;;;2.10;99.90;;;;;;4944384;28;19945;-83
2022/01/05 05:41:00;;;;;;;;;;;2.10;99.90;;;;;;4948228;28;20296;-83
2022/01/05 05:43:27;;;;;;;;;;;2.00;99.90;;;;;;4946006;28;19930;-83
2022/01/05 05:45:53;;;;;;;;;;;2.00;99.90;;;;;;4947551;28;19985;-83
2022/01/05 05:48:21;;;;;;;;;;;2.00;99.90;;;;;;4930365;28;19930;-83
2022/01/05 05:50:47;;;;;;;;;;;2.00;99.90;;;;;;4942023;28;20013;-83
2022/01/05 05:53:15;;;;;;;;;;;2.00;99.90;;;;;;4948591;28;20018;-83
2022/01/05 05:55:41;;;;;;;;;;;1.90;99.90;;;;;;4945939;28;19922;-83
2022/01/05 05:58:08;;;;;;;;;;;1.90;99.90;;;;;;4946538;28;20230;-83
2022/01/05 06:00:35;;;;;;;;;;;1.90;99.90;;;;;;4944794;28;19993;-83
2022/01/05 06:03:02;;;;;;;;;;;1.90;99.90;;;;;;4946273;28;19922;-83
2022/01/05 06:05:29;;;;;;;;;;;1.90;99.90;;;;;;4952516;28;19933;-83
2022/01/05 06:07:56;;;;;;;;;;;1.90;99.90;;;;;;4952073;28;19926;-83
2022/01/05 06:10:23;;;;;;;;;;;1.90;99.90;;;;;;4949349;28;19942;-83
2022/01/05 06:12:50;;;;;;;;;;;1.90;99.90;;;;;;4963816;28;20359;-83
2022/01/05 06:15:17;;;;;;;;;;;1.90;99.90;;;;;;4967254;28;19981;-83
2022/01/05 06:17:43;;;;;;;;;;;1.90;99.90;;;;;;4966457;28;19933;-83
2022/01/05 06:20:11;;;;;;;;;;;1.90;99.90;;;;;;4984964;28;20295;-83
2022/01/05 06:22:39;;;;;;;;;;;2.00;99.90;;;;;;4982415;28;20314;-83
2022/01/05 06:25:06;;;;;;;;;;;2.00;99.90;;;;;;4974427;28;20441;-82
2022/01/05 06:27:33;;;;;;;;;;;2.00;99.90;;;;;;4969770;28;20079;-83
2022/01/05 06:30:06;;;;;;;;;;;2.10;99.90;;;;;;4969912;28;20402;-83
2022/01/05 06:32:34;;;;;;;;;;;2.10;99.90;;;;;;4964797;28;19959;-82
2022/01/05 06:35:02;;;;;;;;;;;2.10;99.90;;;;;;4968831;28;19969;-83
2022/01/05 06:37:29;;;;;;;;;;;2.10;99.90;;;;;;4971555;28;20025;-83
2022/01/05 06:39:56;;;;;;;;;;;2.10;99.90;;;;;;4968314;28;19926;-83
2022/01/05 06:42:23;;;;;;;;;;;2.10;99.90;;;;;;4982431;28;19936;-83
2022/01/05 06:44:49;;;;;;;;;;;2.10;99.90;;;;;;4978345;28;20268;-83
2022/01/05 06:47:16;;;;;;;;;;;2.10;99.90;;;;;;4991472;28;19945;-83
2022/01/05 06:49:43;;;;;;;;;;;2.10;99.90;;;;;;4982378;28;19949;-83
2022/01/05 06:52:11;;;;;;;;;;;2.10;99.90;;;;;;4984448;28;20367;-83
2022/01/05 06:54:41;;;;;;;;;;;2.10;99.90;;;;;;4966178;28;19922;-83
2022/01/05 06:57:09;;;;;;;;;;;2.10;99.90;;;;;;4969666;28;19977;-83
2022/01/05 06:59:36;;;;;;;;;;;2.10;99.90;;;;;;4969512;28;19976;-83
2022/01/05 07:02:04;;;;;;;;;;;2.20;99.90;;;;;;4963028;28;19976;-83
2022/01/05 07:04:31;;;;;;;;;;;2.20;99.90;;;;;;4967840;28;19934;-83
2022/01/05 07:06:58;;;;;;;;;;;2.20;99.90;;;;;;4983525;28;19937;-83
2022/01/05 07:09:25;;;;;;;;;;;2.20;99.90;;;;;;4969731;28;20000;-83
2022/01/05 07:11:52;;;;;;;;;;;2.30;99.90;;;;;;4964638;28;19922;-83
2022/01/05 07:14:24;;;;;;;;;;;2.30;99.90;;;;;;4964830;28;20282;-83
2022/01/05 07:16:51;;;;;;;;;;;2.30;99.90;;;;;;4978255;28;19926;-84
2022/01/05 07:19:20;;;;;;;;;;;2.40;99.90;;;;;;4966848;28;20008;-83
2022/01/05 07:21:47;;;;;;;;;;;2.40;99.90;;;;;;4967406;28;19973;-83
2022/01/05 07:24:17;;;;;;;;;;;2.40;99.90;;;;;;4982698;28;19926;-83
2022/01/05 07:26:44;;;;;;;;;;;2.50;99.90;;;;;;4961774;28;19930;-83
2022/01/05 07:29:12;;;;;;;;;;;2.50;99.90;;;;;;4540729;28;10000404;-83
2022/01/05 07:31:39;;;;;;;;;;;2.60;99.90;;;;;;682506;28;10002172;-83
2022/01/05 07:34:06;;;;;;;;;;;2.60;99.90;;;;;;4962396;28;19926;-83
2022/01/05 07:36:33;;;;;;;;;;;2.60;99.90;;;;;;4965870;28;19933;-83
2022/01/05 07:39:02;;;;;;;;;;;2.60;99.90;;;;;;4968563;28;19933;-84
2022/01/05 07:41:29;;;;;;;;;;;2.60;99.90;;;;;;4981696;28;20383;-84
2022/01/05 07:43:56;;;;;;;;;;;2.70;99.90;;;;;;4967993;28;19926;-83
2022/01/05 07:46:23;;;;;;;;;;;2.60;99.90;;;;;;4966991;28;20423;-84
2022/01/05 07:48:50;;;;;;;;;;;2.40;99.90;;;;;;4963265;28;19925;-84
2022/01/05 07:51:17;;;;;;;;;;;2.30;99.90;;;;;;4967168;28;19953;-83
2022/01/05 07:53:44;;;;;;;;;;;2.20;99.90;;;;;;4982124;28;19975;-84
2022/01/05 07:56:11;;;;;;;;;;;2.00;99.90;;;;;;4980195;28;19929;-84
2022/01/05 07:58:38;;;;;;;;;;;2.00;99.90;;;;;;4964629;28;20659;-84
2022/01/05 08:01:05;;;;;;;;;;;2.00;99.90;;;;;;4967742;28;19922;-83
2022/01/05 08:03:33;;;;;;;;;;;2.00;99.90;;;;;;4972565;28;19922;-83
2022/01/05 08:06:19;;;;;;;;;;;2.00;99.90;;;;;;4964962;28;20454;-83
2022/01/05 08:08:46;;;;;;;;;;;2.00;99.90;;;;;;4979949;28;20004;-83
2022/01/05 08:11:13;;;;;;;;;;;2.00;99.90;;;;;;4963161;28;19925;-84
2022/01/05 08:13:40;;;;;;;;;;;2.00;99.90;;;;;;4964735;28;20027;-84
2022/01/05 08:16:07;;;;;;;;;;;2.10;99.90;;;;;;4979383;28;19930;-84
2022/01/05 08:18:34;;;;;;;;;;;2.10;99.90;;;;;;4966038;28;19922;-84
2022/01/05 08:21:01;;;;;;;;;;;2.20;99.90;;;;;;4967236;28;20454;-84
2022/01/05 08:23:28;;;;;;;;;;;2.20;99.90;;;;;;4967359;28;19974;-83
2022/01/05 08:25:55;;;;;;;;;;;2.20;99.90;;;;;;4965949;28;19937;-84
2022/01/05 08:28:22;;;;;;;;;;;2.30;99.90;;;;;;4968521;28;20314;-84
2022/01/05 08:30:50;;;;;;;;;;;2.30;99.90;;;;;;4982364;28;19971;-83
2022/01/05 08:33:17;;;;;;;;;;;2.30;99.90;;;;;;4966529;28;19922;-83
2022/01/05 08:35:44;;;;;;;;;;;2.40;99.90;;;;;;4965891;28;19937;-83
2022/01/05 08:38:12;;;;;;;;;;;2.40;99.90;;;;;;4961609;28;19969;-83
2022/01/05 08:40:39;;;;;;;;;;;2.50;99.90;;;;;;4981443;28;19996;-84
2022/01/05 08:43:06;;;;;;;;;;;2.50;99.90;;;;;;4965358;28;19963;-83
2022/01/05 08:45:33;;;;;;;;;;;2.50;99.90;;;;;;4968600;28;19933;-84
2022/01/05 08:48:00;;;;;;;;;;;2.50;99.90;;;;;;4980788;28;19939;-83
2022/01/05 08:50:28;;;;;;;;;;;2.50;99.90;;;;;;4967053;28;20583;-83
2022/01/05 08:52:57;;;;;;;;;;;2.50;99.90;;;;;;4965745;28;20311;-83
2022/01/05 08:55:25;;;;;;;;;;;2.60;99.90;;;;;;4963116;28;20407;-84
2022/01/05 08:57:52;;;;;;;;;;;2.60;99.90;;;;;;4966086;28;20017;-83
2022/01/05 09:00:19;;;;;;;;;;;2.60;99.90;;;;;;4966304;28;19930;-84
2022/01/05 09:02:46;;;;;;;;;;;2.60;99.90;;;;;;4978583;28;19930;-83
2022/01/05 09:05:13;;;;;;;;;;;2.60;99.90;;;;;;4966215;28;19926;-83
2022/01/05 09:07:40;;;;;;;;;;;2.70;99.90;;;;;;4963183;28;19996;-83
2022/01/05 09:10:07;;;;;;;;;;;2.60;99.90;;;;;;4966016;28;19928;-83
2022/01/05 09:12:35;;;;;;;;;;;2.60;99.90;;;;;;4961647;28;20342;-83
2022/01/05 09:15:03;;;;;;;;;;;2.60;99.90;;;;;;4976963;28;20558;-83
2022/01/05 09:17:30;;;;;;;;;;;2.60;99.90;;;;;;4966970;28;19925;-83
2022/01/05 09:19:57;;;;;;;;;;;2.60;99.90;;;;;;4979893;28;19922;-83
2022/01/05 09:22:24;;;;;;;;;;;2.60;99.90;;;;;;4962903;28;20463;-83
2022/01/05 09:24:51;;;;;;;;;;;2.60;99.90;;;;;;4962503;28;20360;-83
2022/01/05 09:27:18;;;;;;;;;;;2.60;99.90;;;;;;4987216;28;20040;-83
2022/01/05 09:29:57;;;;;;;;;;;2.60;99.90;;;;;;3415958;28;10020682;-83
2022/01/05 09:32:24;;;;;;;;;;;2.60;99.90;;;;;;2224926;28;10002019;-83
2022/01/05 09:34:51;;;;;;;;;;;2.60;99.90;;;;;;4965216;28;19934;-83
2022/01/05 09:37:25;;;;;;;;;;;2.60;99.90;;;;;;4956598;28;19922;-84
2022/01/05 09:42:39;;;;;;;;;;;2.60;99.90;;;;;;4967594;28;20120;-83
2022/01/05 09:45:27;;;;;;;;;;;2.50;99.90;;;;;;4939665;28;19938;-83
2022/01/05 09:47:57;;;;;;;;;;;2.40;99.90;;;;;;4958557;28;19926;-83
2022/01/05 09:50:24;;;;;;;;;;;2.40;99.90;;;;;;4966331;28;19933;-84
2022/01/05 09:52:51;;;;;;;;;;;2.30;99.90;;;;;;4962462;28;19957;-83
2022/01/05 09:55:18;;;;;;;;;;;2.30;99.90;;;;;;4970827;28;19930;-84
2022/01/05 09:57:45;;;;;;;;;;;2.30;99.90;;;;;;4983829;28;20305;-83
2022/01/05 10:00:17;;;;;;;;;;;2.30;99.90;;;;;;4969416;28;20060;-82
2022/01/05 10:02:45;;;;;;;;;;;2.20;99.90;;;;;;4964924;28;20010;-83
2022/01/05 10:05:14;;;;;;;;;;;2.30;99.90;;;;;;4983387;28;19922;-83
2022/01/05 10:07:41;;;;;;;;;;;2.30;99.90;;;;;;4966693;28;20348;-83
2022/01/05 10:10:09;;;;;;;;;;;2.30;99.90;;;;;;4983303;28;19922;-83
2022/01/05 10:12:36;;;;;;;;;;;2.20;99.90;;;;;;4967534;28;19939;-83
2022/01/05 10:15:07;;;;;;;;;;;2.30;99.90;;;;;;4972282;28;20463;-84
2022/01/05 10:17:36;;;;;;;;;;;2.30;99.90;;;;;;4976212;28;19937;-83
2022/01/05 10:20:07;;;;;;;;;;;2.30;99.90;;;;;;4965282;28;20430;-83
2022/01/05 10:22:38;;;;;;;;;;;2.30;99.90;;;;;;4968961;28;19926;-83
2022/01/05 10:25:06;;;;;;;;;;;2.20;99.90;;;;;;4966910;28;20335;-83
2022/01/05 10:27:33;;;;;;;;;;;2.20;99.90;;;;;;4981481;28;19980;-83
2022/01/05 10:30:04;;;;;;;;;;;2.20;99.90;;;;;;4969659;28;19976;-83
2022/01/05 10:32:33;;;;;;;;;;;2.20;99.90;;;;;;4965130;28;19937;-83
2022/01/05 10:35:01;;;;;;;;;;;2.30;99.90;;;;;;4977845;28;19976;-83
2022/01/05 10:37:28;;;;;;;;;;;2.30;99.90;;;;;;4970971;28;20308;-83
2022/01/05 10:40:07;;;;;;;;;;;2.40;99.90;;;;;;4975646;28;19995;-84
2022/01/05 10:42:34;;;;;;;;;;;2.40;99.90;;;;;;4982514;28;19922;-83
2022/01/05 10:45:03;;;;;;;;;;;2.40;99.90;;;;;;4966771;28;19977;-84
2022/01/05 10:47:29;;;;;;;;;;;2.40;99.90;;;;;;4968887;28;20556;-82
2022/01/05 10:49:56;;;;;;;;;;;2.50;99.90;;;;;;4969066;28;19926;-83
2022/01/05 10:52:23;;;;;;;;;;;2.40;99.90;;;;;;4969472;28;20029;-83
2022/01/05 10:54:50;;;;;;;;;;;2.40;99.90;;;;;;4967551;28;19972;-84
2022/01/05 10:57:18;;;;;;;;;;;2.40;99.90;;;;;;4983081;28;19929;-83
2022/01/05 10:59:46;;;;;;;;;;;2.50;99.90;;;;;;4965043;28;19930;-83
2022/01/05 11:02:32;;;;;;;;;;;2.50;99.90;;;;;;4966097;28;19922;-83
2022/01/05 11:04:59;;;;;;;;;;;2.60;99.90;;;;;;4964989;28;19922;-83
2022/01/05 11:07:31;;;;;;;;;;;2.60;99.90;;;;;;4970921;28;20004;-83
2022/01/05 11:10:01;;;;;;;;;;;2.60;99.90;;;;;;4968026;28;19952;-83
2022/01/05 11:12:35;;;;;;;;;;;2.60;99.90;;;;;;4964900;28;19921;-83
2022/01/05 11:15:27;;;;;;;;;;;2.70;99.90;;;;;;4967974;28;19930;-83
2022/01/05 11:18:13;;;;;;;;;;;2.70;99.90;;;;;;4961965;28;20284;-83
2022/01/05 11:21:01;;;;;;;;;;;2.80;99.90;;;;;;4965284;28;19933;-83
2022/01/05 11:23:29;;;;;;;;;;;2.80;99.90;;;;;;4981465;28;19930;-83
2022/01/05 11:25:57;;;;;;;;;;;2.70;99.90;;;;;;4970944;28;19926;-83
2022/01/05 11:28:24;;;;;;;;;;;2.80;99.90;;;;;;4966570;28;19922;-83
2022/01/05 11:31:07;;;;;;;;;;;2.80;99.90;;;;;;1041395;28;10022173;-83
2022/01/05 11:33:34;;;;;;;;;;;2.80;99.90;;;;;;4612617;28;10001144;-83
2022/01/05 11:36:01;;;;;;;;;;;2.80;99.90;;;;;;4954886;28;19954;-83
2022/01/05 11:38:40;;;;;;;;;;;2.80;99.90;;;;;;4947959;28;19930;-83
2022/01/05 11:41:09;;;;;;;;;;;2.70;99.90;;;;;;4948987;28;19926;-83
2022/01/05 11:43:39;;;;;;;;;;;2.80;99.90;;;;;;4958849;28;19930;-83
2022/01/05 11:46:13;;;;;;;;;;;2.80;99.90;;;;;;4975302;28;19944;-83
2022/01/05 11:48:40;;;;;;;;;;;2.80;99.90;;;;;;4981211;28;19925;-82
2022/01/05 11:51:07;;;;;;;;;;;2.80;99.90;;;;;;4963033;28;19930;-83
2022/01/05 11:53:34;;;;;;;;;;;2.90;99.90;;;;;;4967578;28;20429;-83
2022/01/05 11:56:04;;;;;;;;;;;2.90;99.90;;;;;;4966536;28;20480;-83
2022/01/05 11:58:35;;;;;;;;;;;2.90;99.90;;;;;;4965803;28;19945;-83
2022/01/05 12:01:12;;;;;;;;;;;2.90;99.90;;;;;;4967657;28;19952;-84
2022/01/05 12:03:52;;;;;;;;;;;2.90;99.90;;;;;;4967029;28;19932;-83
2022/01/05 12:06:26;;;;;;;;;;;3.00;99.90;;;;;;4977628;28;20351;-83
2022/01/05 12:08:54;;;;;;;;;;;2.90;99.90;;;;;;4978083;28;19953;-83
2022/01/05 12:11:42;;;;;;;;;;;3.00;99.90;;;;;;4980728;28;19969;-83
2022/01/05 12:14:21;;;;;;;;;;;3.00;99.90;;;;;;4972213;28;19922;-83
2022/01/05 12:17:00;;;;;;;;;;;3.00;99.90;;;;;;4980796;28;20000;-83
2022/01/05 12:19:27;;;;;;;;;;;3.00;99.90;;;;;;4978019;28;19923;-83
2022/01/05 12:21:55;;;;;;;;;;;3.00;99.90;;;;;;4972297;28;19922;-83
2022/01/05 12:24:22;;;;;;;;;;;3.00;99.90;;;;;;4951075;28;19941;-83
2022/01/05 12:27:07;;;;;;;;;;;2.90;99.90;;;;;;4947130;28;19926;-83
2022/01/05 12:29:34;;;;;;;;;;;2.80;99.90;;;;;;4946280;28;20276;-83
2022/01/05 12:32:06;;;;;;;;;;;2.80;99.90;;;;;;4945061;28;19923;-83
2022/01/05 12:34:53;;;;;;;;;;;2.70;99.90;;;;;;4947160;28;19930;-83
2022/01/05 12:37:39;;;;;;;;;;;2.70;99.90;;;;;;4938257;28;19999;-83
2022/01/05 12:40:29;;;;;;;;;;;2.60;99.90;;;;;;4957970;28;19929;-83
2022/01/05 12:43:08;;;;;;;;;;;2.60;99.90;;;;;;4960116;28;20008;-83
2022/01/05 12:45:50;;;;;;;;;;;2.60;99.90;;;;;;4958274;28;20365;-83
2022/01/05 12:48:36;;;;;;;;;;;2.60;99.90;;;;;;4964725;28;19948;-84
2022/01/05 12:51:14;;;;;;;;;;;2.50;99.90;;;;;;4974628;28;19933;-83
2022/01/05 12:54:01;;;;;;;;;;;2.60;99.90;;;;;;4965195;28;19941;-83
2022/01/05 12:56:31;;;;;;;;;;;2.60;99.90;;;;;;4963882;28;20315;-83
2022/01/05 12:58:58;;;;;;;;;;;2.60;99.90;;;;;;4966549;28;19922;-83
2022/01/05 13:01:26;;;;;;;;;;;2.60;99.90;;;;;;4962760;28;20360;-83
2022/01/05 13:03:54;;;;;;;;;;;2.70;99.90;;;;;;4965759;28;19926;-83
2022/01/05 13:06:24;;;;;;;;;;;2.70;99.90;;;;;;4965160;28;19980;-83
2022/01/05 13:08:58;;;;;;;;;;;2.70;99.90;;;;;;4965883;28;19945;-83
2022/01/05 13:11:32;;;;;;;;;;;2.70;99.90;;;;;;4977598;28;20021;-83
2022/01/05 13:14:14;;;;;;;;;;;2.70;99.90;;;;;;4971677;28;20396;-83
2022/01/05 13:16:42;;;;;;;;;;;2.80;99.90;;;;;;4964203;28;20008;-83
2022/01/05 13:19:15;;;;;;;;;;;2.80;99.90;;;;;;4966780;28;19946;-83
2022/01/05 13:21:46;;;;;;;;;;;2.80;99.90;;;;;;4964107;28;19922;-83
2022/01/05 13:24:14;;;;;;;;;;;2.70;99.90;;;;;;4969679;28;19933;-83
2022/01/05 13:27:00;;;;;;;;;;;2.70;99.90;;;;;;4963465;28;20291;-83
2022/01/05 13:29:42;;;;;;;;;;;2.70;99.90;;;;;;4024861;28;10000024;-83
2022/01/05 13:32:10;;;;;;;;;;;2.60;99.90;;;;;;1712522;28;10002008;-83
2022/01/05 13:34:46;;;;;;;;;;;2.50;99.90;;;;;;4967426;28;19977;-83
2022/01/05 13:37:23;;;;;;;;;;;2.50;99.90;;;;;;4970371;28;19930;-83
2022/01/05 13:39:50;;;;;;;;;;;2.50;99.90;;;;;;4971260;28;19934;-83
2022/01/05 13:42:18;;;;;;;;;;;2.50;99.90;;;;;;4969439;28;20365;-83
2022/01/05 13:44:46;;;;;;;;;;;2.50;99.90;;;;;;4965431;28;20032;-83
2022/01/05 13:47:15;;;;;;;;;;;2.50;99.90;;;;;;4969270;28;19967;-83
2022/01/05 13:50:01;;;;;;;;;;;2.50;99.90;;;;;;4964631;28;19973;-83
2022/01/05 13:52:28;;;;;;;;;;;2.50;99.90;;;;;;4961997;28;19925;-83
2022/01/05 13:54:55;;;;;;;;;;;2.40;99.90;;;;;;4969242;28;19930;-83
2022/01/05 13:57:41;;;;;;;;;;;2.40;99.90;;;;;;4968623;28;19922;-83
2022/01/05 14:00:09;;;;;;;;;;;2.40;99.90;;;;;;4971850;28;19933;-82
2022/01/05 14:02:37;;;;;;;;;;;2.40;99.90;;;;;;4961395;28;20021;-83
2022/01/05 14:05:04;;;;;;;;;;;2.40;99.90;;;;;;4968177;28;19971;-83
2022/01/05 14:07:31;;;;;;;;;;;2.40;99.90;;;;;;4968708;28;19964;-83
2022/01/05 14:10:06;;;;;;;;;;;2.40;99.90;;;;;;4982229;28;20402;-83
2022/01/05 14:12:34;;;;;;;;;;;2.40;99.90;;;;;;4960123;28;20009;-83
2022/01/05 14:15:01;;;;;;;;;;;2.40;99.90;;;;;;4967607;28;20279;-83
2022/01/05 14:17:28;;;;;;;;;;;2.40;99.90;;;;;;4964451;28;19922;-83
2022/01/05 14:20:11;;;;;;;;;;;2.40;99.90;;;;;;4969962;28;19926;-83
2022/01/05 14:22:38;;;;;;;;;;;2.40;99.90;;;;;;4981943;28;19930;-82
2022/01/05 14:25:06;;;;;;;;;;;2.40;99.90;;;;;;4972557;28;19969;-83
2022/01/05 14:27:37;;;;;;;;;;;2.40;99.90;;;;;;4967388;28;20029;-83
2022/01/05 14:30:10;;;;;;;;;;;2.40;99.90;;;;;;4972431;28;19929;-83
2022/01/05 14:32:38;;;;;;;;;;;2.40;99.90;;;;;;4977697;28;19922;-83
2022/01/05 14:35:15;;;;;;;;;;;2.40;99.90;;;;;;4966437;28;19981;-83
2022/01/05 14:37:58;;;;;;;;;;;2.50;99.90;;;;;;4966757;28;19968;-83
2022/01/05 14:40:28;;;;;;;;;;;2.50;99.90;;;;;;4966718;28;19949;-83
2022/01/05 14:43:00;;;;;;;;;;;2.40;99.90;;;;;;4964612;28;19988;-82
2022/01/05 14:45:32;;;;;;;;;;;2.40;99.90;;;;;;4964011;28;19941;-83